sensor_id;sensor_type;location;lat;lon;timestamp;pressure;altitude;pressure_sealevel;temperature;humidity
76060;BME280;64759;52.220;5.170;2023-04-21T00:00:58;101595.69;;;9.55;73.83
76060;BME280;64759;52.220;5.170;2023-04-21T00:03:24;101591.22;;;9.57;74.25
76060;BME280;64759;52.220;5.170;2023-04-21T00:05:52;101578.16;;;9.59;74.13
76060;BME280;64759;52.220;5.170;2023-04-21T00:08:18;101577.59;;;9.55;74.27
76060;BME280;64759;52.220;5.170;2023-04-21T00:10:43;101579.44;;;9.53;74.78
76060;BME280;64759;52.220;5.170;2023-04-21T00:13:11;101583.25;;;9.60;74.67
76060;BME280;64759;52.220;5.170;2023-04-21T00:15:36;101569.84;;;9.55;75.09
76060;BME280;64759;52.220;5.170;2023-04-21T00:18:02;101565.72;;;9.53;75.24
76060;BME280;64759;52.220;5.170;2023-04-21T00:20:28;101564.53;;;9.57;75.22
76060;BME280;64759;52.220;5.170;2023-04-21T00:22:55;101553.94;;;9.49;76.27
76060;BME280;64759;52.220;5.170;2023-04-21T00:25:22;101549.03;;;9.46;76.59
76060;BME280;64759;52.220;5.170;2023-04-21T00:27:47;101552.31;;;9.48;76.51
76060;BME280;64759;52.220;5.170;2023-04-21T00:30:13;101540.44;;;9.45;77.04
76060;BME280;64759;52.220;5.170;2023-04-21T00:32:38;101533.63;;;9.44;76.78
76060;BME280;64759;52.220;5.170;2023-04-21T00:35:05;101534.09;;;9.38;77.11
76060;BME280;64759;52.220;5.170;2023-04-21T00:37:32;101526.09;;;9.30;78.02
76060;BME280;64759;52.220;5.170;2023-04-21T00:39:57;101537.00;;;9.34;78.35
76060;BME280;64759;52.220;5.170;2023-04-21T00:42:24;101537.13;;;9.32;78.57
76060;BME280;64759;52.220;5.170;2023-04-21T00:44:53;101537.97;;;9.33;79.20
76060;BME280;64759;52.220;5.170;2023-04-21T00:47:18;101539.25;;;9.27;79.91
76060;BME280;64759;52.220;5.170;2023-04-21T00:49:45;101535.59;;;9.30;79.53
76060;BME280;64759;52.220;5.170;2023-04-21T00:52:12;101537.22;;;9.19;79.78
76060;BME280;64759;52.220;5.170;2023-04-21T00:54:38;101532.06;;;9.19;79.55
76060;BME280;64759;52.220;5.170;2023-04-21T00:57:04;101527.94;;;9.17;80.52
76060;BME280;64759;52.220;5.170;2023-04-21T00:59:32;101532.97;;;9.07;80.79
76060;BME280;64759;52.220;5.170;2023-04-21T01:01:59;101538.16;;;9.07;80.97
76060;BME280;64759;52.220;5.170;2023-04-21T01:04:25;101534.16;;;9.03;81.32
76060;BME280;64759;52.220;5.170;2023-04-21T01:06:51;101526.75;;;8.99;81.22
76060;BME280;64759;52.220;5.170;2023-04-21T01:09:19;101520.97;;;8.95;81.80
76060;BME280;64759;52.220;5.170;2023-04-21T01:12:01;101519.53;;;8.80;83.06
76060;BME280;64759;52.220;5.170;2023-04-21T01:14:28;101517.44;;;8.85;83.05
76060;BME280;64759;52.220;5.170;2023-04-21T01:16:53;101508.63;;;8.88;83.26
76060;BME280;64759;52.220;5.170;2023-04-21T01:19:19;101507.59;;;8.90;82.96
76060;BME280;64759;52.220;5.170;2023-04-21T01:21:44;101507.59;;;8.90;82.92
76060;BME280;64759;52.220;5.170;2023-04-21T01:24:10;101512.38;;;8.84;83.45
76060;BME280;64759;52.220;5.170;2023-04-21T01:26:37;101501.94;;;8.85;83.31
76060;BME280;64759;52.220;5.170;2023-04-21T01:29:03;101490.91;;;8.83;83.71
76060;BME280;64759;52.220;5.170;2023-04-21T01:31:32;101489.97;;;8.84;83.85
76060;BME280;64759;52.220;5.170;2023-04-21T01:34:02;101485.50;;;8.86;83.90
76060;BME280;64759;52.220;5.170;2023-04-21T01:36:28;101494.88;;;8.87;84.23
76060;BME280;64759;52.220;5.170;2023-04-21T01:38:54;101488.81;;;8.88;84.12
76060;BME280;64759;52.220;5.170;2023-04-21T01:41:21;101498.66;;;8.83;84.82
76060;BME280;64759;52.220;5.170;2023-04-21T01:43:46;101493.47;;;8.83;85.06
76060;BME280;64759;52.220;5.170;2023-04-21T01:46:12;101493.75;;;8.91;84.50
76060;BME280;64759;52.220;5.170;2023-04-21T01:48:37;101492.78;;;8.92;84.87
76060;BME280;64759;52.220;5.170;2023-04-21T01:51:04;101485.53;;;8.97;84.50
76060;BME280;64759;52.220;5.170;2023-04-21T01:53:30;101483.16;;;8.94;84.44
76060;BME280;64759;52.220;5.170;2023-04-21T01:55:57;101480.22;;;8.88;84.82
76060;BME280;64759;52.220;5.170;2023-04-21T01:58:22;101475.28;;;8.85;84.89
76060;BME280;64759;52.220;5.170;2023-04-21T02:00:47;101474.47;;;8.84;84.94
76060;BME280;64759;52.220;5.170;2023-04-21T02:03:13;101465.78;;;8.85;85.39
76060;BME280;64759;52.220;5.170;2023-04-21T02:05:40;101461.94;;;8.91;85.45
76060;BME280;64759;52.220;5.170;2023-04-21T02:08:06;101460.03;;;8.93;85.28
76060;BME280;64759;52.220;5.170;2023-04-21T02:10:31;101461.69;;;8.94;85.62
76060;BME280;64759;52.220;5.170;2023-04-21T02:12:56;101456.41;;;8.95;85.23
76060;BME280;64759;52.220;5.170;2023-04-21T02:15:22;101467.78;;;8.93;85.19
76060;BME280;64759;52.220;5.170;2023-04-21T02:17:47;101474.97;;;8.89;85.13
76060;BME280;64759;52.220;5.170;2023-04-21T02:20:13;101474.72;;;8.92;85.07
76060;BME280;64759;52.220;5.170;2023-04-21T02:22:38;101461.69;;;8.94;85.22
76060;BME280;64759;52.220;5.170;2023-04-21T02:25:05;101466.38;;;8.89;85.58
76060;BME280;64759;52.220;5.170;2023-04-21T02:27:30;101467.66;;;8.94;85.41
76060;BME280;64759;52.220;5.170;2023-04-21T02:29:58;101468.50;;;8.84;85.50
76060;BME280;64759;52.220;5.170;2023-04-21T02:32:23;101463.69;;;8.90;86.05
76060;BME280;64759;52.220;5.170;2023-04-21T02:34:49;101461.69;;;8.94;85.61
76060;BME280;64759;52.220;5.170;2023-04-21T02:37:16;101461.22;;;8.89;86.26
76060;BME280;64759;52.220;5.170;2023-04-21T02:39:42;101453.81;;;8.95;86.41
76060;BME280;64759;52.220;5.170;2023-04-21T02:42:08;101456.63;;;8.92;86.09
76060;BME280;64759;52.220;5.170;2023-04-21T02:44:36;101458.16;;;8.84;86.23
76060;BME280;64759;52.220;5.170;2023-04-21T02:47:03;101452.78;;;8.87;86.62
76060;BME280;64759;52.220;5.170;2023-04-21T02:49:29;101461.31;;;8.87;86.29
76060;BME280;64759;52.220;5.170;2023-04-21T02:51:57;101451.25;;;8.84;86.86
76060;BME280;64759;52.220;5.170;2023-04-21T02:54:22;101463.41;;;8.82;86.91
76060;BME280;64759;52.220;5.170;2023-04-21T02:56:49;101464.72;;;8.77;87.22
76060;BME280;64759;52.220;5.170;2023-04-21T02:59:15;101455.19;;;8.77;87.53
76060;BME280;64759;52.220;5.170;2023-04-21T03:01:40;101452.50;;;8.79;87.45
76060;BME280;64759;52.220;5.170;2023-04-21T03:04:07;101468.22;;;8.76;87.77
76060;BME280;64759;52.220;5.170;2023-04-21T03:06:32;101454.75;;;8.72;88.05
76060;BME280;64759;52.220;5.170;2023-04-21T03:08:58;101454.75;;;8.72;87.71
76060;BME280;64759;52.220;5.170;2023-04-21T03:11:26;101443.69;;;8.70;87.91
76060;BME280;64759;52.220;5.170;2023-04-21T03:13:52;101453.66;;;8.75;88.25
76060;BME280;64759;52.220;5.170;2023-04-21T03:16:17;101459.91;;;8.72;88.10
76060;BME280;64759;52.220;5.170;2023-04-21T03:18:44;101439.25;;;8.72;88.25
76060;BME280;64759;52.220;5.170;2023-04-21T03:21:10;101449.44;;;8.74;88.35
76060;BME280;64759;52.220;5.170;2023-04-21T03:23:36;101459.78;;;8.74;88.26
76060;BME280;64759;52.220;5.170;2023-04-21T03:26:06;101450.50;;;8.71;88.47
76060;BME280;64759;52.220;5.170;2023-04-21T03:28:31;101449.88;;;8.68;88.41
76060;BME280;64759;52.220;5.170;2023-04-21T03:30:57;101449.88;;;8.68;88.63
76060;BME280;64759;52.220;5.170;2023-04-21T03:33:22;101445.47;;;8.70;88.77
76060;BME280;64759;52.220;5.170;2023-04-21T03:35:50;101431.72;;;8.69;88.68
76060;BME280;64759;52.220;5.170;2023-04-21T03:38:15;101431.03;;;8.67;88.99
76060;BME280;64759;52.220;5.170;2023-04-21T03:40:41;101438.78;;;8.67;89.08
76060;BME280;64759;52.220;5.170;2023-04-21T03:43:06;101444.16;;;8.75;89.08
76060;BME280;64759;52.220;5.170;2023-04-21T03:45:34;101421.63;;;8.77;88.94
76060;BME280;64759;52.220;5.170;2023-04-21T03:47:59;101435.50;;;8.76;88.90
76060;BME280;64759;52.220;5.170;2023-04-21T03:50:25;101433.81;;;8.75;88.97
76060;BME280;64759;52.220;5.170;2023-04-21T03:52:50;101411.66;;;8.73;88.58
76060;BME280;64759;52.220;5.170;2023-04-21T03:55:16;101433.34;;;8.70;88.62
76060;BME280;64759;52.220;5.170;2023-04-21T03:57:41;101439.34;;;8.71;88.69
76060;BME280;64759;52.220;5.170;2023-04-21T04:00:09;101425.03;;;8.67;89.20
76060;BME280;64759;52.220;5.170;2023-04-21T04:02:37;101425.84;;;8.67;88.75
76060;BME280;64759;52.220;5.170;2023-04-21T04:05:03;101405.28;;;8.66;89.03
76060;BME280;64759;52.220;5.170;2023-04-21T04:07:33;101409.31;;;8.70;89.18
76060;BME280;64759;52.220;5.170;2023-04-21T04:09:59;101406.47;;;8.73;88.64
76060;BME280;64759;52.220;5.170;2023-04-21T04:12:24;101406.38;;;8.74;88.66
76060;BME280;64759;52.220;5.170;2023-04-21T04:14:50;101404.59;;;8.75;88.66
76060;BME280;64759;52.220;5.170;2023-04-21T04:17:15;101401.22;;;8.74;88.45
76060;BME280;64759;52.220;5.170;2023-04-21T04:19:41;101404.59;;;8.75;88.41
76060;BME280;64759;52.220;5.170;2023-04-21T04:22:07;101402.75;;;8.77;88.95
76060;BME280;64759;52.220;5.170;2023-04-21T04:24:32;101396.63;;;8.78;88.78
76060;BME280;64759;52.220;5.170;2023-04-21T04:26:58;101389.34;;;8.83;88.70
76060;BME280;64759;52.220;5.170;2023-04-21T04:29:26;101386.06;;;8.81;89.05
76060;BME280;64759;52.220;5.170;2023-04-21T04:31:51;101393.47;;;8.85;88.58
76060;BME280;64759;52.220;5.170;2023-04-21T04:34:17;101391.84;;;8.84;88.88
76060;BME280;64759;52.220;5.170;2023-04-21T04:36:43;101404.50;;;8.87;88.34
76060;BME280;64759;52.220;5.170;2023-04-21T04:39:09;101402.50;;;8.80;88.26
76060;BME280;64759;52.220;5.170;2023-04-21T04:41:35;101406.97;;;8.78;88.54
76060;BME280;64759;52.220;5.170;2023-04-21T04:44:00;101411.19;;;8.79;88.98
76060;BME280;64759;52.220;5.170;2023-04-21T04:46:30;101402.50;;;8.80;88.38
76060;BME280;64759;52.220;5.170;2023-04-21T04:48:55;101403.53;;;8.77;88.30
76060;BME280;64759;52.220;5.170;2023-04-21T04:51:21;101409.44;;;8.79;88.35
76060;BME280;64759;52.220;5.170;2023-04-21T04:53:48;101407.44;;;8.83;88.77
76060;BME280;64759;52.220;5.170;2023-04-21T04:56:13;101406.50;;;8.84;88.77
76060;BME280;64759;52.220;5.170;2023-04-21T04:58:39;101404.63;;;8.86;88.43
76060;BME280;64759;52.220;5.170;2023-04-21T05:01:16;101399.44;;;8.75;88.56
76060;BME280;64759;52.220;5.170;2023-04-21T05:03:42;101405.81;;;8.82;88.85
76060;BME280;64759;52.220;5.170;2023-04-21T05:06:09;101406.84;;;8.90;88.86
76060;BME280;64759;52.220;5.170;2023-04-21T05:08:34;101415.09;;;8.95;88.48
76060;BME280;64759;52.220;5.170;2023-04-21T05:11:00;101403.09;;;8.94;88.25
76060;BME280;64759;52.220;5.170;2023-04-21T05:13:25;101409.78;;;8.97;88.20
76060;BME280;64759;52.220;5.170;2023-04-21T05:15:57;101405.59;;;8.96;88.58
76060;BME280;64759;52.220;5.170;2023-04-21T05:18:23;101400.97;;;8.99;87.95
76060;BME280;64759;52.220;5.170;2023-04-21T05:20:48;101412.84;;;9.02;88.01
76060;BME280;64759;52.220;5.170;2023-04-21T05:23:14;101405.00;;;9.03;88.42
76060;BME280;64759;52.220;5.170;2023-04-21T05:25:39;101409.78;;;8.97;87.70
76060;BME280;64759;52.220;5.170;2023-04-21T05:28:05;101419.78;;;9.01;88.26
76060;BME280;64759;52.220;5.170;2023-04-21T05:30:30;101414.72;;;9.00;88.29
76060;BME280;64759;52.220;5.170;2023-04-21T05:32:55;101428.94;;;9.05;88.00
76060;BME280;64759;52.220;5.170;2023-04-21T05:35:21;101429.78;;;9.06;88.10
76060;BME280;64759;52.220;5.170;2023-04-21T05:37:46;101433.88;;;9.08;87.87
76060;BME280;64759;52.220;5.170;2023-04-21T05:40:12;101417.69;;;9.06;88.00
76060;BME280;64759;52.220;5.170;2023-04-21T05:42:37;101426.00;;;9.10;87.79
76060;BME280;64759;52.220;5.170;2023-04-21T05:45:03;101423.31;;;9.11;87.92
76060;BME280;64759;52.220;5.170;2023-04-21T05:47:29;101428.81;;;9.07;88.06
76060;BME280;64759;52.220;5.170;2023-04-21T05:49:54;101431.53;;;9.16;87.91
76060;BME280;64759;52.220;5.170;2023-04-21T05:52:20;101440.69;;;9.20;87.94
76060;BME280;64759;52.220;5.170;2023-04-21T05:54:48;101438.94;;;9.21;88.10
76060;BME280;64759;52.220;5.170;2023-04-21T05:57:13;101444.47;;;9.28;87.46
76060;BME280;64759;52.220;5.170;2023-04-21T05:59:41;101441.41;;;9.23;87.90
76060;BME280;64759;52.220;5.170;2023-04-21T06:02:06;101439.97;;;9.30;87.90
76060;BME280;64759;52.220;5.170;2023-04-21T06:04:32;101441.38;;;9.34;87.77
76060;BME280;64759;52.220;5.170;2023-04-21T06:06:57;101441.28;;;9.35;87.98
76060;BME280;64759;52.220;5.170;2023-04-21T06:09:22;101444.22;;;9.42;88.05
76060;BME280;64759;52.220;5.170;2023-04-21T06:11:48;101442.91;;;9.47;88.04
76060;BME280;64759;52.220;5.170;2023-04-21T06:14:15;101432.13;;;9.42;88.03
76060;BME280;64759;52.220;5.170;2023-04-21T06:16:40;101432.94;;;9.43;87.92
76060;BME280;64759;52.220;5.170;2023-04-21T06:19:05;101433.63;;;9.45;87.84
76060;BME280;64759;52.220;5.170;2023-04-21T06:21:31;101442.34;;;9.33;87.75
76060;BME280;64759;52.220;5.170;2023-04-21T06:23:57;101429.06;;;9.37;87.70
76060;BME280;64759;52.220;5.170;2023-04-21T06:26:22;101429.28;;;9.34;87.85
76060;BME280;64759;52.220;5.170;2023-04-21T06:28:48;101431.41;;;9.29;87.98
76060;BME280;64759;52.220;5.170;2023-04-21T06:31:13;101436.34;;;9.43;87.99
76060;BME280;64759;52.220;5.170;2023-04-21T06:33:40;101437.88;;;9.35;88.26
76060;BME280;64759;52.220;5.170;2023-04-21T06:36:06;101429.56;;;9.31;87.58
76060;BME280;64759;52.220;5.170;2023-04-21T06:38:31;101433.53;;;9.35;87.70
76060;BME280;64759;52.220;5.170;2023-04-21T06:40:57;101433.63;;;9.45;87.94
76060;BME280;64759;52.220;5.170;2023-04-21T06:43:23;101435.03;;;9.49;88.13
76060;BME280;64759;52.220;5.170;2023-04-21T06:45:48;101436.91;;;9.58;87.75
76060;BME280;64759;52.220;5.170;2023-04-21T06:48:13;101433.59;;;9.56;87.68
76060;BME280;64759;52.220;5.170;2023-04-21T06:50:39;101427.03;;;9.52;87.36
76060;BME280;64759;52.220;5.170;2023-04-21T06:53:05;101431.16;;;9.54;87.50
76060;BME280;64759;52.220;5.170;2023-04-21T06:55:30;101430.13;;;9.46;87.79
76060;BME280;64759;52.220;5.170;2023-04-21T06:57:56;101438.69;;;9.57;88.05
76060;BME280;64759;52.220;5.170;2023-04-21T07:00:21;101435.59;;;9.74;86.99
76060;BME280;64759;52.220;5.170;2023-04-21T07:02:46;101434.53;;;9.66;87.06
76060;BME280;64759;52.220;5.170;2023-04-21T07:05:14;101422.28;;;9.79;87.02
76060;BME280;64759;52.220;5.170;2023-04-21T07:07:39;101419.13;;;9.75;87.20
76060;BME280;64759;52.220;5.170;2023-04-21T07:10:05;101416.13;;;9.91;86.54
76060;BME280;64759;52.220;5.170;2023-04-21T07:12:31;101414.84;;;9.97;87.25
76060;BME280;64759;52.220;5.170;2023-04-21T07:14:56;101416.09;;;10.13;86.63
76060;BME280;64759;52.220;5.170;2023-04-21T07:17:22;101422.94;;;10.14;86.10
76060;BME280;64759;52.220;5.170;2023-04-21T07:19:47;101416.69;;;10.17;85.02
76060;BME280;64759;52.220;5.170;2023-04-21T07:22:12;101418.53;;;10.46;85.87
76060;BME280;64759;52.220;5.170;2023-04-21T07:24:38;101415.28;;;10.75;85.19
76060;BME280;64759;52.220;5.170;2023-04-21T07:27:03;101420.28;;;10.87;82.73
76060;BME280;64759;52.220;5.170;2023-04-21T07:29:29;101426.81;;;11.52;82.97
76060;BME280;64759;52.220;5.170;2023-04-21T07:31:54;101428.75;;;11.59;80.90
76060;BME280;64759;52.220;5.170;2023-04-21T07:34:20;101425.16;;;11.51;80.59
76060;BME280;64759;52.220;5.170;2023-04-21T07:36:45;101428.19;;;11.56;80.24
76060;BME280;64759;52.220;5.170;2023-04-21T07:39:11;101432.94;;;11.51;80.45
76060;BME280;64759;52.220;5.170;2023-04-21T07:41:37;101437.19;;;11.52;80.47
76060;BME280;64759;52.220;5.170;2023-04-21T07:44:03;101437.22;;;11.22;81.14
76060;BME280;64759;52.220;5.170;2023-04-21T07:46:29;101440.66;;;11.01;81.32
76060;BME280;64759;52.220;5.170;2023-04-21T07:48:57;101443.47;;;11.19;81.77
76060;BME280;64759;52.220;5.170;2023-04-21T07:51:24;101431.38;;;10.99;81.62
76060;BME280;64759;52.220;5.170;2023-04-21T07:53:50;101433.56;;;11.03;81.77
76060;BME280;64759;52.220;5.170;2023-04-21T07:56:15;101438.66;;;11.05;81.28
76060;BME280;64759;52.220;5.170;2023-04-21T07:58:41;101434.34;;;10.94;81.59
76060;BME280;64759;52.220;5.170;2023-04-21T08:01:07;101434.88;;;11.18;81.94
76060;BME280;64759;52.220;5.170;2023-04-21T08:03:33;101431.00;;;11.43;80.92
76060;BME280;64759;52.220;5.170;2023-04-21T08:05:58;101425.91;;;11.72;79.75
76060;BME280;64759;52.220;5.170;2023-04-21T08:08:23;101423.91;;;12.04;77.98
76060;BME280;64759;52.220;5.170;2023-04-21T08:10:49;101423.91;;;12.52;76.95
76060;BME280;64759;52.220;5.170;2023-04-21T08:13:15;101418.84;;;12.41;75.35
76060;BME280;64759;52.220;5.170;2023-04-21T08:15:41;101420.50;;;12.42;75.03
76060;BME280;64759;52.220;5.170;2023-04-21T08:18:07;101410.53;;;12.37;75.69
76060;BME280;64759;52.220;5.170;2023-04-21T08:20:34;101406.94;;;12.38;74.41
76060;BME280;64759;52.220;5.170;2023-04-21T08:22:59;101411.59;;;12.44;75.68
76060;BME280;64759;52.220;5.170;2023-04-21T08:25:25;101415.72;;;12.37;75.98
76060;BME280;64759;52.220;5.170;2023-04-21T08:27:51;101420.31;;;12.53;76.47
76060;BME280;64759;52.220;5.170;2023-04-21T08:30:16;101431.81;;;12.70;74.98
76060;BME280;64759;52.220;5.170;2023-04-21T08:32:42;101429.06;;;12.62;74.60
76060;BME280;64759;52.220;5.170;2023-04-21T08:35:08;101438.53;;;12.05;75.45
76060;BME280;64759;52.220;5.170;2023-04-21T08:37:37;101432.25;;;11.89;76.51
76060;BME280;64759;52.220;5.170;2023-04-21T08:40:04;101437.28;;;12.00;76.00
76060;BME280;64759;52.220;5.170;2023-04-21T08:42:30;101429.50;;;12.19;76.21
76060;BME280;64759;52.220;5.170;2023-04-21T08:44:55;101432.31;;;12.73;76.04
76060;BME280;64759;52.220;5.170;2023-04-21T08:47:22;101428.44;;;12.96;71.95
76060;BME280;64759;52.220;5.170;2023-04-21T08:49:50;101422.53;;;13.41;72.09
76060;BME280;64759;52.220;5.170;2023-04-21T08:52:17;101422.94;;;13.46;72.34
76060;BME280;64759;52.220;5.170;2023-04-21T08:54:43;101433.88;;;13.13;71.29
76060;BME280;64759;52.220;5.170;2023-04-21T08:57:08;101429.03;;;12.81;72.23
76060;BME280;64759;52.220;5.170;2023-04-21T08:59:34;101416.00;;;12.90;73.43
76060;BME280;64759;52.220;5.170;2023-04-21T09:04:31;101426.47;;;13.18;72.95
76060;BME280;64759;52.220;5.170;2023-04-21T09:06:57;101417.25;;;12.86;73.22
76060;BME280;64759;52.220;5.170;2023-04-21T09:09:22;101414.28;;;12.72;73.21
76060;BME280;64759;52.220;5.170;2023-04-21T09:11:55;101417.38;;;12.94;72.62
76060;BME280;64759;52.220;5.170;2023-04-21T09:14:21;101418.34;;;12.84;72.26
76060;BME280;64759;52.220;5.170;2023-04-21T09:16:58;101413.13;;;12.93;72.39
76060;BME280;64759;52.220;5.170;2023-04-21T09:19:28;101418.34;;;12.84;72.69
76060;BME280;64759;52.220;5.170;2023-04-21T09:21:54;101423.59;;;13.21;72.13
76060;BME280;64759;52.220;5.170;2023-04-21T09:24:20;101412.97;;;13.59;71.77
76060;BME280;64759;52.220;5.170;2023-04-21T09:26:50;101415.75;;;13.75;71.44
76060;BME280;64759;52.220;5.170;2023-04-21T09:29:16;101410.13;;;13.97;70.92
76060;BME280;64759;52.220;5.170;2023-04-21T09:31:43;101411.13;;;13.69;69.57
76060;BME280;64759;52.220;5.170;2023-04-21T09:36:44;101415.81;;;13.11;70.76
76060;BME280;64759;52.220;5.170;2023-04-21T09:39:10;101409.66;;;13.39;71.67
76060;BME280;64759;52.220;5.170;2023-04-21T09:41:35;101415.78;;;13.48;71.61
76060;BME280;64759;52.220;5.170;2023-04-21T09:44:02;101417.81;;;13.27;72.70
76060;BME280;64759;52.220;5.170;2023-04-21T09:46:33;101410.59;;;13.48;73.12
76060;BME280;64759;52.220;5.170;2023-04-21T09:49:00;101403.06;;;13.18;72.07
76060;BME280;64759;52.220;5.170;2023-04-21T09:51:25;101407.63;;;13.06;72.18
76060;BME280;64759;52.220;5.170;2023-04-21T09:53:55;101407.59;;;13.43;72.75
76060;BME280;64759;52.220;5.170;2023-04-21T09:56:24;101407.66;;;13.78;71.69
76060;BME280;64759;52.220;5.170;2023-04-21T09:58:56;101411.38;;;13.75;71.20
76060;BME280;64759;52.220;5.170;2023-04-21T10:01:25;101397.66;;;13.73;71.28
76060;BME280;64759;52.220;5.170;2023-04-21T10:03:51;101404.31;;;14.03;71.72
76060;BME280;64759;52.220;5.170;2023-04-21T10:06:18;101397.22;;;14.13;68.62
76060;BME280;64759;52.220;5.170;2023-04-21T10:08:44;101397.84;;;14.25;69.12
76060;BME280;64759;52.220;5.170;2023-04-21T10:11:11;101397.47;;;14.20;69.01
76060;BME280;64759;52.220;5.170;2023-04-21T10:13:37;101394.59;;;14.05;69.87
76060;BME280;64759;52.220;5.170;2023-04-21T10:16:09;101399.31;;;13.74;69.60
76060;BME280;64759;52.220;5.170;2023-04-21T10:18:36;101401.66;;;13.95;69.27
76060;BME280;64759;52.220;5.170;2023-04-21T10:21:07;101407.22;;;13.83;68.92
76060;BME280;64759;52.220;5.170;2023-04-21T10:23:45;101407.16;;;14.10;68.59
76060;BME280;64759;52.220;5.170;2023-04-21T10:26:26;101395.91;;;14.27;67.96
76060;BME280;64759;52.220;5.170;2023-04-21T10:29:02;101395.53;;;14.22;68.52
76060;BME280;64759;52.220;5.170;2023-04-21T10:36:50;101381.47;;;14.32;70.17
76060;BME280;64759;52.220;5.170;2023-04-21T10:39:32;101381.75;;;14.29;70.65
76060;BME280;64759;52.220;5.170;2023-04-21T10:44:43;101381.69;;;14.21;70.15
76060;BME280;64759;52.220;5.170;2023-04-21T10:47:09;101377.69;;;14.09;69.81
76060;BME280;64759;52.220;5.170;2023-04-21T10:49:39;101376.94;;;14.17;69.25
76060;BME280;64759;52.220;5.170;2023-04-21T10:52:08;101381.59;;;14.49;68.14
76060;BME280;64759;52.220;5.170;2023-04-21T10:57:17;101370.66;;;14.27;68.53
76060;BME280;64759;52.220;5.170;2023-04-21T10:59:44;101376.41;;;14.31;67.78
76060;BME280;64759;52.220;5.170;2023-04-21T11:02:12;101368.00;;;14.37;68.79
76060;BME280;64759;52.220;5.170;2023-04-21T11:04:39;101363.91;;;14.34;69.26
76060;BME280;64759;52.220;5.170;2023-04-21T11:07:16;101367.25;;;14.27;69.74
76060;BME280;64759;52.220;5.170;2023-04-21T11:09:44;101356.28;;;14.23;70.08
76060;BME280;64759;52.220;5.170;2023-04-21T11:12:12;101363.75;;;14.36;68.99
76060;BME280;64759;52.220;5.170;2023-04-21T11:14:39;101359.09;;;14.30;68.38
76060;BME280;64759;52.220;5.170;2023-04-21T11:17:10;101358.31;;;14.29;67.33
76060;BME280;64759;52.220;5.170;2023-04-21T11:19:37;101349.47;;;14.22;67.79
76060;BME280;64759;52.220;5.170;2023-04-21T11:22:05;101346.06;;;14.30;67.44
76060;BME280;64759;52.220;5.170;2023-04-21T11:24:32;101336.28;;;14.24;68.12
76060;BME280;64759;52.220;5.170;2023-04-21T11:26:57;101334.88;;;14.29;67.56
76060;BME280;64759;52.220;5.170;2023-04-21T11:29:25;101335.00;;;14.28;67.63
76060;BME280;64759;52.220;5.170;2023-04-21T11:31:50;101336.28;;;14.42;67.11
76060;BME280;64759;52.220;5.170;2023-04-21T11:34:21;101335.47;;;14.23;66.73
76060;BME280;64759;52.220;5.170;2023-04-21T11:36:47;101331.91;;;14.24;66.35
76060;BME280;64759;52.220;5.170;2023-04-21T11:39:15;101326.03;;;14.22;66.83
76060;BME280;64759;52.220;5.170;2023-04-21T11:41:43;101336.13;;;14.25;67.15
76060;BME280;64759;52.220;5.170;2023-04-21T11:44:09;101324.84;;;14.34;66.33
76060;BME280;64759;52.220;5.170;2023-04-21T11:46:35;101327.66;;;14.23;66.75
76060;BME280;64759;52.220;5.170;2023-04-21T11:49:06;101326.16;;;14.21;67.26
76060;BME280;64759;52.220;5.170;2023-04-21T11:51:39;101322.91;;;14.19;67.86
76060;BME280;64759;52.220;5.170;2023-04-21T11:54:06;101316.38;;;14.40;66.50
76060;BME280;64759;52.220;5.170;2023-04-21T11:56:36;101307.09;;;14.64;65.99
76060;BME280;64759;52.220;5.170;2023-04-21T11:59:10;101315.56;;;14.66;65.87
76060;BME280;64759;52.220;5.170;2023-04-21T12:01:47;101300.53;;;14.93;65.95
76060;BME280;64759;52.220;5.170;2023-04-21T12:04:20;101304.38;;;15.31;65.01
76060;BME280;64759;52.220;5.170;2023-04-21T12:06:53;101288.91;;;15.38;64.35
76060;BME280;64759;52.220;5.170;2023-04-21T12:09:19;101285.72;;;15.60;64.64
76060;BME280;64759;52.220;5.170;2023-04-21T12:11:50;101283.56;;;15.72;62.06
76060;BME280;64759;52.220;5.170;2023-04-21T12:14:21;101286.53;;;15.85;61.82
76060;BME280;64759;52.220;5.170;2023-04-21T12:16:55;101277.69;;;15.86;62.06
76060;BME280;64759;52.220;5.170;2023-04-21T12:19:40;101272.16;;;15.97;62.23
76060;BME280;64759;52.220;5.170;2023-04-21T12:22:14;101270.81;;;16.09;60.94
76060;BME280;64759;52.220;5.170;2023-04-21T12:24:40;101272.16;;;15.97;59.84
76060;BME280;64759;52.220;5.170;2023-04-21T12:27:07;101263.00;;;15.68;61.89
76060;BME280;64759;52.220;5.170;2023-04-21T12:29:33;101252.53;;;15.93;61.93
76060;BME280;64759;52.220;5.170;2023-04-21T12:32:06;101268.22;;;15.93;61.70
76060;BME280;64759;52.220;5.170;2023-04-21T12:34:31;101268.41;;;15.91;61.89
76060;BME280;64759;52.220;5.170;2023-04-21T12:36:58;101263.31;;;15.90;62.08
76060;BME280;64759;52.220;5.170;2023-04-21T12:39:24;101264.47;;;15.71;63.28
76060;BME280;64759;52.220;5.170;2023-04-21T12:41:49;101246.84;;;15.89;63.48
76060;BME280;64759;52.220;5.170;2023-04-21T12:44:15;101254.19;;;16.02;62.88
76060;BME280;64759;52.220;5.170;2023-04-21T12:46:40;101250.25;;;16.14;61.85
76060;BME280;64759;52.220;5.170;2023-04-21T12:49:07;101240.94;;;16.11;62.18
76060;BME280;64759;52.220;5.170;2023-04-21T12:51:34;101230.31;;;16.05;61.44
76060;BME280;64759;52.220;5.170;2023-04-21T12:53:59;101235.41;;;16.06;60.98
76060;BME280;64759;52.220;5.170;2023-04-21T12:56:25;101224.19;;;15.65;60.61
76060;BME280;64759;52.220;5.170;2023-04-21T12:58:51;101228.94;;;15.62;61.80
76060;BME280;64759;52.220;5.170;2023-04-21T13:01:16;101225.00;;;15.66;60.85
76060;BME280;64759;52.220;5.170;2023-04-21T13:03:42;101222.41;;;15.82;60.83
76060;BME280;64759;52.220;5.170;2023-04-21T13:06:09;101227.13;;;15.70;60.29
76060;BME280;64759;52.220;5.170;2023-04-21T13:08:34;101212.47;;;15.45;60.85